createdAt,value
2018-08-31T00:02:38.853Z,12.98
2018-08-31T00:05:55.998Z,12.45
2018-08-31T00:09:17.279Z,14.00
2018-08-31T00:12:55.844Z,12.75
2018-08-31T00:15:28.986Z,13.05
2018-08-31T00:18:02.229Z,10.93
2018-08-31T00:20:35.327Z,11.48
2018-08-31T00:23:08.690Z,13.00
2018-08-31T00:27:05.462Z,14.33
2018-08-31T00:29:55.760Z,12.93
2018-08-31T00:35:30.299Z,12.18
2018-08-31T00:40:30.427Z,13.18
2018-08-31T00:45:33.123Z,12.88
2018-08-31T00:48:06.569Z,13.10
2018-08-31T00:50:39.790Z,13.80
2018-08-31T00:53:12.924Z,13.48
2018-08-31T00:55:46.054Z,12.03
2018-08-31T00:58:19.156Z,13.38
2018-08-31T01:00:52.282Z,14.65
2018-08-31T01:03:25.356Z,14.50
2018-08-31T01:05:58.688Z,14.38
2018-08-31T01:08:31.866Z,12.80
2018-08-31T01:11:05.037Z,15.28
2018-08-31T01:13:38.150Z,15.60
2018-08-31T01:16:11.277Z,13.83
2018-08-31T01:18:44.368Z,14.68
2018-08-31T01:21:17.557Z,14.20
2018-08-31T01:23:50.685Z,14.03
2018-08-31T01:26:23.822Z,13.10
2018-08-31T01:28:56.938Z,12.63
2018-08-31T01:31:30.062Z,14.93
2018-08-31T01:34:03.193Z,15.38
2018-08-31T01:36:36.425Z,14.23
2018-08-31T01:39:09.667Z,13.53
2018-08-31T01:41:42.806Z,14.28
2018-08-31T01:44:15.904Z,12.58
2018-08-31T01:46:49.146Z,15.70
2018-08-31T01:49:22.300Z,13.22
2018-08-31T01:52:02.329Z,13.48
2018-08-31T01:54:35.449Z,14.05
2018-08-31T01:57:08.753Z,14.70
2018-08-31T01:59:41.880Z,14.35
2018-08-31T02:02:15.077Z,15.30
2018-08-31T02:04:48.422Z,13.25
2018-08-31T02:07:21.537Z,14.93
2018-08-31T02:10:01.409Z,13.45
2018-08-31T02:12:34.589Z,15.25
2018-08-31T02:15:07.857Z,13.32
2018-08-31T02:17:40.998Z,14.18
2018-08-31T02:20:14.177Z,12.95
2018-08-31T02:22:47.310Z,13.90
2018-08-31T02:25:20.464Z,12.40
2018-08-31T02:27:53.577Z,16.32
2018-08-31T02:30:26.746Z,14.55
2018-08-31T02:32:59.841Z,14.93
2018-08-31T02:35:32.986Z,14.40
2018-08-31T02:38:06.631Z,14.43
2018-08-31T02:40:39.773Z,12.58
2018-08-31T02:43:12.913Z,15.00
2018-08-31T02:45:46.088Z,14.75
2018-08-31T02:48:19.189Z,12.65
2018-08-31T02:50:52.305Z,15.13
2018-08-31T02:53:25.390Z,15.88
2018-08-31T02:55:58.690Z,16.23
2018-08-31T02:58:31.798Z,15.65
2018-08-31T03:01:04.961Z,13.65
2018-08-31T03:03:38.133Z,14.68
2018-08-31T03:06:11.237Z,15.40
2018-08-31T03:08:44.394Z,14.03
2018-08-31T03:11:17.590Z,13.65
2018-08-31T03:13:50.818Z,15.90
2018-08-31T03:16:23.953Z,14.70
2018-08-31T03:18:57.094Z,14.45
2018-08-31T03:21:30.203Z,13.60
2018-08-31T03:24:03.375Z,15.45
2018-08-31T03:26:36.465Z,16.48
2018-08-31T03:29:09.771Z,14.63
2018-08-31T03:31:42.877Z,14.50
2018-08-31T03:34:15.984Z,13.27
2018-08-31T03:36:49.207Z,15.53
2018-08-31T03:39:22.270Z,13.67
2018-08-31T03:41:55.458Z,15.77
2018-08-31T03:44:28.546Z,12.87
2018-08-31T03:47:01.645Z,14.30
2018-08-31T03:49:34.889Z,15.83
2018-08-31T03:52:08.011Z,13.33
2018-08-31T03:54:41.165Z,15.83
2018-08-31T03:57:14.342Z,12.07
2018-08-31T03:59:47.587Z,14.77
2018-08-31T04:02:20.685Z,14.87
2018-08-31T04:04:53.924Z,14.03
2018-08-31T04:07:27.018Z,14.13
2018-08-31T04:10:00.189Z,15.47
2018-08-31T04:12:33.266Z,14.55
2018-08-31T04:15:07.827Z,14.00
2018-08-31T04:17:40.936Z,15.33
2018-08-31T04:20:14.030Z,14.05
2018-08-31T04:22:47.159Z,14.20
2018-08-31T04:25:20.313Z,16.80
2018-08-31T04:27:53.398Z,16.73
2018-08-31T04:30:26.546Z,16.53
2018-08-31T04:32:59.676Z,14.83
2018-08-31T04:35:32.798Z,14.47
2018-08-31T04:38:05.989Z,14.30
2018-08-31T04:40:39.169Z,13.40
2018-08-31T04:43:12.315Z,15.25
2018-08-31T04:45:45.483Z,15.58
2018-08-31T04:48:18.633Z,14.28
2018-08-31T04:50:51.781Z,13.90
2018-08-31T04:53:24.930Z,15.63
2018-08-31T04:55:58.235Z,13.93
2018-08-31T04:58:31.373Z,16.25
2018-08-31T05:01:04.564Z,16.55
2018-08-31T05:03:37.828Z,14.68
2018-08-31T05:06:10.956Z,13.93
2018-08-31T05:08:44.070Z,13.35
2018-08-31T05:11:18.557Z,14.93
2018-08-31T05:13:51.691Z,15.00
2018-08-31T05:16:24.786Z,18.42
2018-08-31T05:18:57.898Z,15.03
2018-08-31T05:21:31.154Z,20.67
2018-08-31T05:24:04.401Z,18.50
2018-08-31T05:26:37.546Z,16.20
2018-08-31T05:29:11.358Z,13.50
2018-08-31T05:31:44.474Z,16.07
2018-08-31T05:34:17.646Z,16.15
2018-08-31T05:36:50.779Z,13.90
2018-08-31T05:39:23.897Z,14.70
2018-08-31T05:41:57.015Z,15.48
2018-08-31T05:44:30.162Z,17.05
2018-08-31T05:47:03.296Z,17.05
2018-08-31T05:49:36.466Z,16.52
2018-08-31T05:52:09.583Z,16.60
2018-08-31T05:54:42.710Z,16.35
2018-08-31T05:57:15.805Z,13.88
2018-08-31T05:59:48.950Z,16.70
2018-08-31T06:02:22.151Z,15.50
2018-08-31T06:04:55.331Z,15.43
2018-08-31T06:07:28.513Z,18.30
2018-08-31T06:10:01.680Z,16.25
2018-08-31T06:12:34.867Z,15.38
2018-08-31T06:15:08.042Z,16.05
2018-08-31T06:17:41.177Z,18.02
2018-08-31T06:20:14.282Z,16.37
2018-08-31T06:22:47.501Z,15.43
2018-08-31T06:25:20.656Z,20.35
2018-08-31T06:27:53.889Z,14.50
2018-08-31T06:30:27.052Z,15.45
2018-08-31T06:33:00.386Z,17.25
2018-08-31T06:35:33.540Z,16.07
2018-08-31T06:38:06.702Z,18.98
2018-08-31T06:40:39.843Z,16.57
2018-08-31T06:43:13.016Z,31.52
2018-08-31T06:45:46.165Z,18.45
2018-08-31T06:48:19.319Z,26.05
2018-08-31T06:50:52.478Z,19.50
2018-08-31T06:53:25.609Z,18.00
2018-08-31T06:55:58.907Z,19.50
2018-08-31T06:58:32.015Z,18.67
2018-08-31T07:01:05.479Z,21.33
2018-08-31T07:03:38.654Z,23.42
2018-08-31T07:06:11.786Z,17.20
2018-08-31T07:08:44.913Z,17.23
2018-08-31T07:11:18.437Z,16.67
2018-08-31T07:13:51.610Z,17.42
2018-08-31T07:16:24.725Z,18.05
2018-08-31T07:18:57.916Z,17.50
2018-08-31T07:21:31.145Z,21.00
2018-08-31T07:24:04.301Z,22.43
2018-08-31T07:26:37.443Z,30.60
2018-08-31T07:29:10.593Z,25.47
2018-08-31T07:31:43.738Z,35.63
2018-08-31T07:34:16.879Z,33.57
2018-08-31T07:36:50.044Z,30.03
2018-08-31T07:39:23.217Z,23.77
2018-08-31T07:41:56.456Z,35.45
2018-08-31T07:44:29.580Z,38.25
2018-08-31T07:47:02.729Z,35.50
2018-08-31T07:49:35.907Z,56.08
2018-08-31T07:52:09.029Z,57.63
2018-08-31T07:54:42.162Z,57.13
2018-08-31T07:57:15.360Z,45.90
2018-08-31T07:59:48.521Z,39.53
2018-08-31T08:02:21.653Z,21.73
2018-08-31T08:04:54.847Z,31.07
2018-08-31T08:07:28.015Z,23.77
2018-08-31T08:10:01.196Z,27.53
2018-08-31T08:12:34.369Z,23.03
2018-08-31T08:15:07.565Z,25.53
2018-08-31T08:17:40.681Z,25.05
2018-08-31T08:20:13.851Z,23.47
2018-08-31T08:22:47.254Z,28.93
2018-08-31T08:25:20.437Z,26.23
2018-08-31T08:27:53.595Z,31.40
2018-08-31T08:30:26.742Z,27.97
2018-08-31T08:32:59.921Z,29.40
2018-08-31T08:35:33.134Z,29.23
2018-08-31T08:38:06.338Z,29.80
2018-08-31T08:40:39.491Z,31.57
2018-08-31T08:43:12.656Z,28.80
2018-08-31T08:45:45.845Z,34.87
2018-08-31T08:48:19.044Z,28.27
2018-08-31T08:50:52.198Z,32.97
2018-08-31T08:53:25.392Z,31.87
2018-08-31T08:55:58.685Z,28.70
2018-08-31T08:58:31.831Z,29.03
2018-08-31T09:01:05.145Z,29.63
2018-08-31T09:03:38.316Z,27.83
2018-08-31T09:06:11.505Z,31.75
2018-08-31T09:08:44.621Z,30.23
2018-08-31T09:11:17.822Z,30.72
2018-08-31T09:13:50.996Z,27.85
2018-08-31T09:16:24.178Z,31.05
2018-08-31T09:18:57.348Z,30.87
2018-08-31T09:21:30.525Z,29.60
2018-08-31T09:24:03.713Z,30.43
2018-08-31T09:26:36.903Z,29.82
2018-08-31T09:29:10.128Z,27.10
2018-08-31T09:31:43.310Z,26.33
2018-08-31T09:34:16.473Z,28.27
2018-08-31T09:36:49.585Z,32.53
2018-08-31T09:39:22.901Z,31.68
2018-08-31T09:41:56.025Z,28.73
2018-08-31T09:44:29.213Z,32.35
2018-08-31T09:47:02.358Z,29.48
2018-08-31T09:49:35.506Z,30.50
2018-08-31T09:52:08.595Z,33.73
2018-08-31T09:54:41.808Z,30.57
2018-08-31T09:57:15.065Z,34.05
2018-08-31T09:59:48.186Z,38.95
2018-08-31T10:02:24.195Z,31.35
2018-08-31T10:04:58.020Z,42.98
2018-08-31T10:07:31.154Z,45.95
2018-08-31T10:10:04.405Z,39.60
2018-08-31T10:12:37.636Z,35.68
2018-08-31T10:15:10.858Z,36.28
2018-08-31T10:17:47.079Z,34.15
2018-08-31T10:20:20.254Z,43.98
2018-08-31T10:22:53.442Z,58.95
2018-08-31T10:25:26.606Z,35.28
2018-08-31T10:27:59.770Z,29.42
2018-08-31T10:30:33.007Z,31.48
2018-08-31T10:33:06.429Z,36.20
2018-08-31T10:35:39.658Z,47.10
2018-08-31T10:38:12.824Z,31.65
2018-08-31T10:40:46.079Z,37.23
2018-08-31T10:43:19.319Z,30.40
2018-08-31T10:45:52.578Z,30.15
2018-08-31T10:48:25.778Z,35.48
2018-08-31T10:50:58.970Z,33.40
2018-08-31T10:53:32.108Z,33.13
2018-08-31T10:56:05.335Z,32.30
2018-08-31T10:58:38.503Z,61.23
2018-08-31T11:01:11.710Z,77.53
2018-08-31T11:03:44.996Z,34.25
2018-08-31T11:06:18.238Z,31.62
2018-08-31T11:08:51.435Z,30.43
2018-08-31T11:11:24.679Z,30.08
2018-08-31T11:13:57.825Z,33.15
2018-08-31T11:16:31.023Z,27.05
2018-08-31T11:19:04.158Z,28.27
2018-08-31T11:21:37.333Z,28.57
2018-08-31T11:24:10.585Z,29.18
2018-08-31T11:26:43.810Z,32.93
2018-08-31T11:29:16.995Z,31.97
2018-08-31T11:31:50.185Z,32.65
2018-08-31T11:34:23.337Z,34.33
2018-08-31T11:36:56.491Z,31.90
2018-08-31T11:39:29.715Z,37.28
2018-08-31T11:42:02.965Z,32.08
2018-08-31T11:44:36.103Z,29.48
2018-08-31T11:47:09.243Z,29.20
2018-08-31T11:49:42.393Z,29.02
2018-08-31T11:52:15.652Z,24.23
2018-08-31T11:54:48.820Z,28.05
2018-08-31T11:57:21.986Z,21.97
2018-08-31T11:59:55.211Z,32.50
2018-08-31T12:02:28.387Z,90.65
2018-08-31T12:05:01.646Z,55.85
2018-08-31T12:07:34.860Z,33.02
2018-08-31T12:10:08.136Z,55.43
2018-08-31T12:12:41.344Z,22.35
2018-08-31T12:15:14.558Z,18.00
2018-08-31T12:17:47.764Z,24.40
2018-08-31T12:20:20.966Z,21.05
2018-08-31T12:22:54.153Z,23.52
2018-08-31T12:25:27.335Z,21.48
2018-08-31T12:28:00.509Z,16.45
2018-08-31T12:30:33.655Z,21.50
2018-08-31T12:33:06.901Z,17.37
2018-08-31T12:35:40.222Z,18.65
2018-08-31T12:38:13.476Z,22.98
2018-08-31T12:44:02.108Z,18.30
2018-08-31T12:46:35.325Z,21.23
2018-08-31T12:49:08.482Z,22.10
2018-08-31T12:51:41.741Z,18.37
2018-08-31T12:54:15.158Z,18.07
2018-08-31T12:56:48.338Z,18.65
2018-08-31T12:59:21.538Z,19.60
2018-08-31T13:01:54.745Z,18.30
2018-08-31T13:04:27.966Z,21.20
2018-08-31T13:07:01.239Z,19.23
2018-08-31T13:09:34.327Z,17.17
2018-08-31T13:12:07.531Z,16.55
2018-08-31T13:14:40.821Z,18.20
2018-08-31T13:17:14.004Z,18.05
2018-08-31T13:19:47.228Z,18.30
2018-08-31T13:22:20.390Z,20.08
2018-08-31T13:24:53.594Z,16.67
2018-08-31T13:27:27.023Z,14.85
2018-08-31T13:30:00.231Z,18.10
2018-08-31T13:32:33.360Z,17.07
2018-08-31T13:35:06.655Z,17.17
2018-08-31T13:37:39.877Z,15.93
2018-08-31T13:40:13.062Z,15.90
2018-08-31T13:42:46.270Z,16.60
2018-08-31T13:45:19.494Z,15.72
2018-08-31T13:47:52.684Z,14.83
2018-08-31T13:50:25.887Z,15.98
2018-08-31T13:52:59.062Z,17.52
2018-08-31T13:55:32.328Z,13.58
2018-08-31T13:58:05.615Z,16.05
2018-08-31T14:00:38.852Z,15.32
2018-08-31T14:03:12.034Z,14.30
2018-08-31T14:05:45.216Z,15.53
2018-08-31T14:08:18.404Z,14.55
2018-08-31T14:10:51.628Z,13.40
2018-08-31T14:13:24.824Z,15.08
2018-08-31T14:15:58.018Z,14.50
2018-08-31T14:18:31.228Z,14.90
2018-08-31T14:21:11.274Z,12.78
2018-08-31T14:23:44.358Z,12.43
2018-08-31T14:26:18.420Z,14.98
2018-08-31T14:28:51.634Z,13.75
2018-08-31T14:31:24.773Z,11.38
2018-08-31T14:33:57.921Z,13.28
2018-08-31T14:36:31.088Z,13.35
2018-08-31T14:39:06.861Z,12.68
2018-08-31T14:41:40.072Z,13.32
2018-08-31T14:44:13.328Z,15.05
2018-08-31T14:46:46.570Z,13.93
2018-08-31T14:49:19.860Z,13.20
2018-08-31T14:51:53.013Z,14.53
2018-08-31T14:54:26.190Z,15.00
2018-08-31T14:56:59.444Z,14.20
2018-08-31T14:59:32.787Z,15.20
2018-08-31T15:02:05.993Z,16.45
2018-08-31T15:04:39.255Z,18.40
2018-08-31T15:07:12.435Z,13.78
2018-08-31T15:09:45.599Z,15.28
2018-08-31T15:12:18.804Z,18.25
2018-08-31T15:14:51.993Z,14.20
2018-08-31T15:17:25.222Z,14.38
2018-08-31T15:19:58.377Z,15.03
2018-08-31T15:22:31.625Z,15.00
2018-08-31T15:25:05.200Z,15.15
2018-08-31T15:27:38.452Z,15.28
2018-08-31T15:30:11.671Z,13.85
2018-08-31T15:32:44.853Z,15.55
2018-08-31T15:35:18.055Z,16.80
2018-08-31T15:37:51.254Z,14.18
2018-08-31T15:40:24.470Z,14.93
2018-08-31T15:42:57.671Z,14.70
2018-08-31T15:45:31.000Z,14.73
2018-08-31T15:48:04.265Z,17.17
2018-08-31T15:50:37.510Z,14.50
2018-08-31T15:53:10.930Z,14.73
2018-08-31T15:55:44.177Z,17.48
2018-08-31T15:58:17.380Z,14.65
2018-08-31T16:00:50.658Z,17.55
2018-08-31T16:03:23.798Z,16.15
2018-08-31T16:05:57.027Z,15.98
2018-08-31T16:08:30.959Z,18.48
2018-08-31T16:11:04.181Z,22.00
2018-08-31T16:13:37.328Z,21.93
2018-08-31T16:16:11.430Z,19.23
2018-08-31T16:18:44.738Z,17.48
2018-08-31T16:21:18.079Z,18.20
2018-08-31T16:23:51.206Z,19.32
2018-08-31T16:26:24.413Z,17.32
2018-08-31T16:28:57.678Z,18.23
2018-08-31T16:31:30.866Z,18.48
2018-08-31T16:34:04.037Z,16.67
2018-08-31T16:36:37.369Z,16.05
2018-08-31T16:39:10.534Z,18.02
2018-08-31T16:41:43.785Z,20.05
2018-08-31T16:44:16.947Z,21.77
2018-08-31T16:46:50.159Z,17.50
2018-08-31T16:49:23.399Z,19.60
2018-08-31T16:51:56.694Z,17.73
2018-08-31T16:54:30.134Z,24.10
2018-08-31T16:57:03.413Z,18.45
2018-08-31T16:59:36.617Z,21.20
2018-08-31T17:02:09.784Z,22.58
2018-08-31T17:04:43.013Z,23.12
2018-08-31T17:07:16.208Z,21.17
2018-08-31T17:09:49.376Z,19.92
2018-08-31T17:12:22.534Z,18.17
2018-08-31T17:14:55.757Z,20.27
2018-08-31T17:17:28.925Z,30.48
2018-08-31T17:20:02.173Z,25.72
2018-08-31T17:22:35.509Z,19.95
2018-08-31T17:25:08.958Z,25.15
2018-08-31T17:27:47.906Z,21.48
2018-08-31T17:30:22.250Z,21.57
2018-08-31T17:33:01.119Z,20.50
2018-08-31T17:35:39.948Z,24.25
2018-08-31T17:38:13.145Z,20.52
2018-08-31T17:40:46.422Z,18.15
2018-08-31T17:43:19.646Z,19.60
2018-08-31T17:45:52.905Z,18.57
2018-08-31T17:48:26.099Z,22.70
2018-08-31T17:50:59.371Z,23.47
2018-08-31T17:53:32.573Z,21.17
2018-08-31T17:56:05.888Z,23.42
2018-08-31T17:58:39.054Z,18.00
2018-08-31T18:01:12.268Z,23.73
2018-08-31T18:03:45.539Z,24.32
2018-08-31T18:06:18.828Z,24.47
2018-08-31T18:08:52.012Z,19.50
2018-08-31T18:11:32.090Z,26.02
2018-08-31T18:14:06.241Z,20.62
2018-08-31T18:16:39.600Z,23.40
2018-08-31T18:19:12.693Z,24.87
2018-08-31T18:21:45.916Z,24.65
2018-08-31T18:24:19.160Z,24.82
2018-08-31T18:26:52.409Z,21.35
2018-08-31T18:29:25.664Z,22.13
2018-08-31T18:31:58.903Z,22.30
2018-08-31T18:34:32.120Z,20.48
2018-08-31T18:37:05.400Z,18.73
2018-08-31T18:39:38.613Z,18.70
2018-08-31T18:42:11.914Z,19.40
2018-08-31T18:44:45.116Z,23.38
2018-08-31T18:47:18.362Z,22.75
2018-08-31T18:49:51.613Z,22.73
2018-08-31T18:52:25.986Z,22.87
2018-08-31T18:54:59.221Z,19.37
2018-08-31T18:57:32.450Z,20.07
2018-08-31T19:00:05.746Z,17.23
2018-08-31T19:02:38.941Z,18.10
2018-08-31T19:05:12.533Z,20.23
2018-08-31T19:07:45.751Z,20.77
2018-08-31T19:10:18.979Z,20.53
2018-08-31T19:12:52.297Z,19.30
2018-08-31T19:15:25.474Z,21.33
2018-08-31T19:17:58.744Z,19.97
2018-08-31T19:20:31.995Z,22.85
2018-08-31T19:23:05.375Z,20.83
2018-08-31T19:25:38.659Z,20.23
2018-08-31T19:28:11.944Z,21.27
2018-08-31T19:30:45.155Z,21.00
2018-08-31T19:33:18.520Z,18.02
2018-08-31T19:35:51.789Z,17.93
2018-08-31T19:38:25.119Z,18.93
2018-08-31T19:40:58.752Z,17.60
2018-08-31T19:43:32.099Z,19.60
2018-08-31T19:46:05.564Z,20.87
2018-08-31T19:48:38.928Z,18.10
2018-08-31T19:51:12.198Z,18.25
2018-08-31T19:53:45.577Z,20.08
2018-08-31T19:56:18.807Z,20.00
2018-08-31T19:58:52.106Z,21.43
2018-08-31T20:01:25.427Z,20.73
2018-08-31T20:03:58.747Z,18.23
2018-08-31T20:06:32.087Z,16.70
2018-08-31T20:09:07.922Z,18.97
2018-08-31T20:11:41.167Z,17.67
2018-08-31T20:14:14.407Z,20.57
2018-08-31T20:16:47.643Z,19.90
2018-08-31T20:19:20.943Z,16.80
2018-08-31T20:21:54.729Z,17.23
2018-08-31T20:24:28.005Z,18.53
2018-08-31T20:27:01.264Z,22.07
2018-08-31T20:29:34.543Z,16.37
2018-08-31T20:32:07.804Z,19.03
2018-08-31T20:34:41.241Z,21.33
2018-08-31T20:37:14.525Z,21.90
2018-08-31T20:39:47.768Z,21.70
2018-08-31T20:42:21.001Z,21.97
2018-08-31T20:44:54.254Z,21.23
2018-08-31T20:47:27.503Z,19.60
2018-08-31T20:50:00.697Z,22.97
2018-08-31T20:52:33.910Z,16.50
2018-08-31T20:55:07.164Z,21.33
2018-08-31T20:57:40.390Z,18.30
2018-08-31T21:00:13.624Z,20.17
2018-08-31T21:02:46.823Z,22.03
2018-08-31T21:05:20.139Z,18.70
2018-08-31T21:07:53.359Z,18.27
2018-08-31T21:10:26.590Z,21.40
2018-08-31T21:12:59.805Z,19.30
2018-08-31T21:15:33.065Z,17.40
2018-08-31T21:18:06.379Z,23.50
2018-08-31T21:20:39.603Z,23.32
2018-08-31T21:23:12.858Z,17.67
2018-08-31T21:25:46.056Z,18.97
2018-08-31T21:28:19.260Z,18.90
2018-08-31T21:30:52.504Z,19.23
2018-08-31T21:33:25.705Z,20.40
2018-08-31T21:35:58.868Z,23.30
2018-08-31T21:38:32.159Z,22.03
2018-08-31T21:41:05.356Z,19.03
2018-08-31T21:43:38.563Z,19.27
2018-08-31T21:46:11.813Z,24.13
2018-08-31T21:48:45.001Z,24.00
2018-08-31T21:51:18.265Z,23.43
2018-08-31T21:53:51.497Z,23.90
2018-08-31T21:56:24.705Z,23.03
2018-08-31T21:58:57.918Z,17.67
2018-08-31T22:01:36.801Z,16.03
2018-08-31T22:04:11.260Z,17.00
2018-08-31T22:06:44.529Z,18.63
2018-08-31T22:09:17.737Z,19.93
2018-08-31T22:11:50.929Z,22.27
2018-08-31T22:14:24.178Z,18.30
2018-08-31T22:16:57.338Z,19.90
2018-08-31T22:19:30.553Z,21.70
2018-08-31T22:22:03.692Z,20.20
2018-08-31T22:24:36.857Z,24.33
2018-08-31T22:27:10.038Z,23.33
2018-08-31T22:29:43.224Z,25.57
2018-08-31T22:32:16.346Z,22.63
2018-08-31T22:34:49.574Z,21.97
2018-08-31T22:37:22.738Z,22.07
2018-08-31T22:39:55.896Z,22.40
2018-08-31T22:42:29.129Z,22.13
2018-08-31T22:45:02.297Z,22.40
2018-08-31T22:47:35.459Z,23.40
2018-08-31T22:50:08.835Z,23.43
2018-08-31T22:52:42.280Z,22.07
2018-08-31T22:55:15.543Z,25.60
2018-08-31T22:57:48.747Z,19.77
2018-08-31T23:00:22.013Z,25.97
2018-08-31T23:02:56.116Z,24.23
2018-08-31T23:05:29.381Z,23.40
2018-08-31T23:08:02.739Z,21.20
2018-08-31T23:10:35.948Z,27.00
2018-08-31T23:13:09.081Z,26.30
2018-08-31T23:15:42.220Z,24.20
2018-08-31T23:18:15.357Z,24.87
2018-08-31T23:20:48.568Z,21.40
2018-08-31T23:23:54.645Z,22.85
2018-08-31T23:26:27.807Z,20.00
2018-08-31T23:29:00.927Z,25.90
2018-08-31T23:31:34.082Z,23.35
2018-08-31T23:34:07.206Z,24.25
2018-08-31T23:36:40.379Z,22.33
2018-08-31T23:39:13.526Z,19.05
2018-08-31T23:41:46.731Z,24.90
2018-08-31T23:44:19.920Z,21.20
2018-08-31T23:46:53.079Z,20.50
2018-08-31T23:49:26.220Z,25.25
2018-08-31T23:51:59.341Z,24.07
2018-08-31T23:54:32.532Z,22.57
2018-08-31T23:57:05.688Z,20.48
2018-08-31T23:59:38.891Z,21.42
